Pleasantville, New York
Current Conditions -  °F | °C
As of 10:56 PM on Wednesday 22 Oct 2014 (Local Time) from KHPN Reporting Station
Moderate Rain Moderate Rain  
Wind Chill: 42°   Ceiling: 2000
Heat Index: 49°   Visibility: 3mi
Dew Point: 46°   Wind: 20mph
Humidity: 90%   Direction: 350°N
Pressure: 29.74"   Gusts: 31mph
Location:  41.13°N, 73.79°W
Report Text: KHPN 230256Z 35017G27KT 3SM RA BR BKN020 OVC025 09/08 A2974 RMK AO2 PK WND 36030/0220 SLP070 P0033 60044 T00940078 55011
Loading
Personal Weather Stations






























Interactive Weather Map
Tropical Storm Tracking
New forecast layout! Learn more

10-Day Weather Forecast

Advertisements
Track Severe Weather on mobile